sensor_id;sensor_type;location;lat;lon;timestamp;temperature;humidity
14031;DHT22;7090;49.436;8.490;2022-07-21T00:00:14;20.80;99.90
14031;DHT22;7090;49.436;8.490;2022-07-21T00:02:40;20.80;99.90
14031;DHT22;7090;49.436;8.490;2022-07-21T00:05:06;20.80;99.90
14031;DHT22;7090;49.436;8.490;2022-07-21T00:07:32;20.80;99.90
14031;DHT22;7090;49.436;8.490;2022-07-21T00:09:58;20.80;99.90
14031;DHT22;7090;49.436;8.490;2022-07-21T00:12:24;20.80;99.90
14031;DHT22;7090;49.436;8.490;2022-07-21T00:14:49;20.80;99.90
14031;DHT22;7090;49.436;8.490;2022-07-21T00:17:15;20.80;99.90
14031;DHT22;7090;49.436;8.490;2022-07-21T00:19:41;20.80;99.90
14031;DHT22;7090;49.436;8.490;2022-07-21T00:22:06;20.80;99.90
14031;DHT22;7090;49.436;8.490;2022-07-21T00:24:32;20.80;99.90
14031;DHT22;7090;49.436;8.490;2022-07-21T00:26:58;20.80;99.90
14031;DHT22;7090;49.436;8.490;2022-07-21T00:29:23;20.70;99.90
14031;DHT22;7090;49.436;8.490;2022-07-21T00:31:49;20.70;99.90
14031;DHT22;7090;49.436;8.490;2022-07-21T00:34:15;20.70;99.90
14031;DHT22;7090;49.436;8.490;2022-07-21T00:36:40;20.60;99.90
14031;DHT22;7090;49.436;8.490;2022-07-21T00:39:06;20.60;99.90
14031;DHT22;7090;49.436;8.490;2022-07-21T00:41:32;20.60;99.90
14031;DHT22;7090;49.436;8.490;2022-07-21T00:43:58;20.60;99.90
14031;DHT22;7090;49.436;8.490;2022-07-21T00:46:24;20.60;99.90
14031;DHT22;7090;49.436;8.490;2022-07-21T00:48:49;20.50;99.90
14031;DHT22;7090;49.436;8.490;2022-07-21T00:51:15;20.50;99.90
14031;DHT22;7090;49.436;8.490;2022-07-21T00:53:41;20.50;99.90
14031;DHT22;7090;49.436;8.490;2022-07-21T00:56:06;20.40;99.90
14031;DHT22;7090;49.436;8.490;2022-07-21T00:58:33;20.40;99.90
14031;DHT22;7090;49.436;8.490;2022-07-21T01:00:58;20.30;99.90
14031;DHT22;7090;49.436;8.490;2022-07-21T01:03:24;20.30;99.90
14031;DHT22;7090;49.436;8.490;2022-07-21T01:05:50;20.40;99.90
14031;DHT22;7090;49.436;8.490;2022-07-21T01:08:17;20.30;99.90
14031;DHT22;7090;49.436;8.490;2022-07-21T01:10:44;20.30;99.90
14031;DHT22;7090;49.436;8.490;2022-07-21T01:13:10;20.30;99.90
14031;DHT22;7090;49.436;8.490;2022-07-21T01:15:36;20.30;99.90
14031;DHT22;7090;49.436;8.490;2022-07-21T01:18:02;20.50;99.90
14031;DHT22;7090;49.436;8.490;2022-07-21T01:20:33;20.40;99.90
14031;DHT22;7090;49.436;8.490;2022-07-21T01:23:00;20.40;99.90
14031;DHT22;7090;49.436;8.490;2022-07-21T01:25:26;20.30;99.90
14031;DHT22;7090;49.436;8.490;2022-07-21T01:27:52;20.40;99.90
14031;DHT22;7090;49.436;8.490;2022-07-21T01:30:17;20.40;99.90
14031;DHT22;7090;49.436;8.490;2022-07-21T01:32:44;20.40;99.90
14031;DHT22;7090;49.436;8.490;2022-07-21T01:35:12;20.30;99.90
14031;DHT22;7090;49.436;8.490;2022-07-21T01:37:41;20.30;99.90
14031;DHT22;7090;49.436;8.490;2022-07-21T01:40:07;20.30;99.90
14031;DHT22;7090;49.436;8.490;2022-07-21T01:42:53;20.30;99.90
14031;DHT22;7090;49.436;8.490;2022-07-21T01:45:19;20.30;99.90
14031;DHT22;7090;49.436;8.490;2022-07-21T01:47:45;20.30;99.90
14031;DHT22;7090;49.436;8.490;2022-07-21T01:50:11;20.30;99.90
14031;DHT22;7090;49.436;8.490;2022-07-21T01:52:37;20.30;99.90
14031;DHT22;7090;49.436;8.490;2022-07-21T01:55:03;20.20;99.90
14031;DHT22;7090;49.436;8.490;2022-07-21T01:57:29;20.30;99.90
14031;DHT22;7090;49.436;8.490;2022-07-21T01:59:54;20.30;99.90
14031;DHT22;7090;49.436;8.490;2022-07-21T02:02:20;20.20;99.90
14031;DHT22;7090;49.436;8.490;2022-07-21T02:04:49;20.10;99.90
14031;DHT22;7090;49.436;8.490;2022-07-21T02:07:15;20.20;99.90
14031;DHT22;7090;49.436;8.490;2022-07-21T02:09:42;20.10;99.90
14031;DHT22;7090;49.436;8.490;2022-07-21T02:12:07;20.10;99.90
14031;DHT22;7090;49.436;8.490;2022-07-21T02:14:33;20.30;99.90
14031;DHT22;7090;49.436;8.490;2022-07-21T02:16:58;20.30;99.90
14031;DHT22;7090;49.436;8.490;2022-07-21T02:19:24;20.30;99.90
14031;DHT22;7090;49.436;8.490;2022-07-21T02:21:50;20.30;99.90
14031;DHT22;7090;49.436;8.490;2022-07-21T02:24:15;20.20;99.90
14031;DHT22;7090;49.436;8.490;2022-07-21T02:26:41;20.40;99.90
14031;DHT22;7090;49.436;8.490;2022-07-21T02:29:06;20.50;99.90
14031;DHT22;7090;49.436;8.490;2022-07-21T02:31:33;20.50;99.90
14031;DHT22;7090;49.436;8.490;2022-07-21T02:33:59;20.50;99.90
14031;DHT22;7090;49.436;8.490;2022-07-21T02:36:24;20.60;99.90
14031;DHT22;7090;49.436;8.490;2022-07-21T02:38:50;20.50;99.90
14031;DHT22;7090;49.436;8.490;2022-07-21T02:41:16;20.40;99.90
14031;DHT22;7090;49.436;8.490;2022-07-21T02:43:42;20.30;99.90
14031;DHT22;7090;49.436;8.490;2022-07-21T02:46:08;20.40;99.90
14031;DHT22;7090;49.436;8.490;2022-07-21T02:48:33;20.40;99.90
14031;DHT22;7090;49.436;8.490;2022-07-21T02:50:59;20.50;99.90
14031;DHT22;7090;49.436;8.490;2022-07-21T02:53:25;20.50;99.90
14031;DHT22;7090;49.436;8.490;2022-07-21T02:55:51;20.50;99.90
14031;DHT22;7090;49.436;8.490;2022-07-21T02:58:21;20.30;99.90
14031;DHT22;7090;49.436;8.490;2022-07-21T03:01:02;20.20;99.90
14031;DHT22;7090;49.436;8.490;2022-07-21T03:03:31;20.10;99.90
14031;DHT22;7090;49.436;8.490;2022-07-21T03:05:57;20.10;99.90
14031;DHT22;7090;49.436;8.490;2022-07-21T03:08:24;20.10;99.90
14031;DHT22;7090;49.436;8.490;2022-07-21T03:10:50;20.10;99.90
14031;DHT22;7090;49.436;8.490;2022-07-21T03:13:16;20.10;99.90
14031;DHT22;7090;49.436;8.490;2022-07-21T03:15:41;20.10;99.90
14031;DHT22;7090;49.436;8.490;2022-07-21T03:18:07;20.10;99.90
14031;DHT22;7090;49.436;8.490;2022-07-21T03:20:36;20.10;99.90
14031;DHT22;7090;49.436;8.490;2022-07-21T03:23:03;20.20;99.90
14031;DHT22;7090;49.436;8.490;2022-07-21T03:25:29;20.30;99.90
14031;DHT22;7090;49.436;8.490;2022-07-21T03:27:55;20.20;99.90
14031;DHT22;7090;49.436;8.490;2022-07-21T03:30:22;20.30;99.90
14031;DHT22;7090;49.436;8.490;2022-07-21T03:32:48;20.40;99.90
14031;DHT22;7090;49.436;8.490;2022-07-21T03:35:14;20.20;99.90
14031;DHT22;7090;49.436;8.490;2022-07-21T03:37:42;20.20;99.90
14031;DHT22;7090;49.436;8.490;2022-07-21T03:40:09;20.20;99.90
14031;DHT22;7090;49.436;8.490;2022-07-21T03:42:35;20.40;99.90
14031;DHT22;7090;49.436;8.490;2022-07-21T03:45:00;20.20;99.90
14031;DHT22;7090;49.436;8.490;2022-07-21T03:47:26;20.20;99.90
14031;DHT22;7090;49.436;8.490;2022-07-21T03:49:51;20.10;99.90
14031;DHT22;7090;49.436;8.490;2022-07-21T03:52:17;20.20;99.90
14031;DHT22;7090;49.436;8.490;2022-07-21T03:54:43;20.10;99.90
14031;DHT22;7090;49.436;8.490;2022-07-21T03:57:08;20.30;99.90
14031;DHT22;7090;49.436;8.490;2022-07-21T03:59:34;20.20;99.90
14031;DHT22;7090;49.436;8.490;2022-07-21T04:02:00;20.50;99.90
14031;DHT22;7090;49.436;8.490;2022-07-21T04:04:25;20.30;99.90
14031;DHT22;7090;49.436;8.490;2022-07-21T04:06:51;20.30;99.90
14031;DHT22;7090;49.436;8.490;2022-07-21T04:09:16;20.20;99.90
14031;DHT22;7090;49.436;8.490;2022-07-21T04:11:43;20.10;99.90
14031;DHT22;7090;49.436;8.490;2022-07-21T04:14:09;20.20;99.90
14031;DHT22;7090;49.436;8.490;2022-07-21T04:16:34;20.20;99.90
14031;DHT22;7090;49.436;8.490;2022-07-21T04:19:00;20.20;99.90
14031;DHT22;7090;49.436;8.490;2022-07-21T04:21:25;20.20;99.90
14031;DHT22;7090;49.436;8.490;2022-07-21T04:23:51;20.20;99.90
14031;DHT22;7090;49.436;8.490;2022-07-21T04:26:17;20.40;99.90
14031;DHT22;7090;49.436;8.490;2022-07-21T04:28:42;20.40;99.90
14031;DHT22;7090;49.436;8.490;2022-07-21T04:31:08;20.50;99.90
14031;DHT22;7090;49.436;8.490;2022-07-21T04:33:33;20.50;99.90
14031;DHT22;7090;49.436;8.490;2022-07-21T04:36:00;20.60;99.90
14031;DHT22;7090;49.436;8.490;2022-07-21T04:38:26;20.50;99.90
14031;DHT22;7090;49.436;8.490;2022-07-21T04:40:51;20.50;99.90
14031;DHT22;7090;49.436;8.490;2022-07-21T04:43:17;20.50;99.90
14031;DHT22;7090;49.436;8.490;2022-07-21T04:45:43;20.50;99.90
14031;DHT22;7090;49.436;8.490;2022-07-21T04:48:08;20.60;99.90
14031;DHT22;7090;49.436;8.490;2022-07-21T04:50:34;20.80;99.90
14031;DHT22;7090;49.436;8.490;2022-07-21T04:52:59;20.80;99.90
14031;DHT22;7090;49.436;8.490;2022-07-21T04:55:26;20.80;99.90
14031;DHT22;7090;49.436;8.490;2022-07-21T04:57:53;21.10;99.90
14031;DHT22;7090;49.436;8.490;2022-07-21T05:00:23;21.20;99.90
14031;DHT22;7090;49.436;8.490;2022-07-21T05:02:51;21.40;99.90
14031;DHT22;7090;49.436;8.490;2022-07-21T05:05:17;21.60;99.90
14031;DHT22;7090;49.436;8.490;2022-07-21T05:07:43;21.50;99.90
14031;DHT22;7090;49.436;8.490;2022-07-21T05:10:12;21.70;99.90
14031;DHT22;7090;49.436;8.490;2022-07-21T05:12:38;21.50;99.90
14031;DHT22;7090;49.436;8.490;2022-07-21T05:15:08;21.50;99.90
14031;DHT22;7090;49.436;8.490;2022-07-21T05:17:36;21.50;99.90
14031;DHT22;7090;49.436;8.490;2022-07-21T05:20:03;21.30;99.90
14031;DHT22;7090;49.436;8.490;2022-07-21T05:22:29;21.30;99.90
14031;DHT22;7090;49.436;8.490;2022-07-21T05:24:54;21.10;99.90
14031;DHT22;7090;49.436;8.490;2022-07-21T05:27:20;20.90;99.90
14031;DHT22;7090;49.436;8.490;2022-07-21T05:29:45;20.90;99.90
14031;DHT22;7090;49.436;8.490;2022-07-21T05:32:11;21.00;99.90
14031;DHT22;7090;49.436;8.490;2022-07-21T05:34:37;20.90;99.90
14031;DHT22;7090;49.436;8.490;2022-07-21T05:37:02;20.80;99.90
14031;DHT22;7090;49.436;8.490;2022-07-21T05:39:29;20.80;99.90
14031;DHT22;7090;49.436;8.490;2022-07-21T05:41:54;21.10;99.90
14031;DHT22;7090;49.436;8.490;2022-07-21T05:44:20;21.30;99.90
14031;DHT22;7090;49.436;8.490;2022-07-21T05:46:45;21.30;99.90
14031;DHT22;7090;49.436;8.490;2022-07-21T05:49:11;21.20;99.90
14031;DHT22;7090;49.436;8.490;2022-07-21T05:51:36;21.50;99.90
14031;DHT22;7090;49.436;8.490;2022-07-21T05:54:02;21.40;99.90
14031;DHT22;7090;49.436;8.490;2022-07-21T05:56:28;22.00;99.90
14031;DHT22;7090;49.436;8.490;2022-07-21T05:58:53;22.00;99.90
14031;DHT22;7090;49.436;8.490;2022-07-21T06:01:19;22.20;99.90
14031;DHT22;7090;49.436;8.490;2022-07-21T06:03:49;22.30;99.90
14031;DHT22;7090;49.436;8.490;2022-07-21T06:06:16;22.80;99.90
14031;DHT22;7090;49.436;8.490;2022-07-21T06:08:43;22.90;99.90
14031;DHT22;7090;49.436;8.490;2022-07-21T06:11:11;22.80;99.90
14031;DHT22;7090;49.436;8.490;2022-07-21T06:13:37;22.90;99.90
14031;DHT22;7090;49.436;8.490;2022-07-21T06:16:03;22.70;99.90
14031;DHT22;7090;49.436;8.490;2022-07-21T06:18:29;22.90;99.90
14031;DHT22;7090;49.436;8.490;2022-07-21T06:20:55;23.90;99.90
14031;DHT22;7090;49.436;8.490;2022-07-21T06:23:21;23.60;1.00
14031;DHT22;7090;49.436;8.490;2022-07-21T06:25:47;23.60;1.00
14031;DHT22;7090;49.436;8.490;2022-07-21T06:28:13;23.40;1.00
14031;DHT22;7090;49.436;8.490;2022-07-21T06:30:39;23.60;1.00
14031;DHT22;7090;49.436;8.490;2022-07-21T06:33:05;24.20;1.00
14031;DHT22;7090;49.436;8.490;2022-07-21T06:35:31;24.30;1.00
14031;DHT22;7090;49.436;8.490;2022-07-21T06:37:56;24.40;1.00
14031;DHT22;7090;49.436;8.490;2022-07-21T06:40:22;24.30;1.00
14031;DHT22;7090;49.436;8.490;2022-07-21T06:42:48;24.10;99.90
14031;DHT22;7090;49.436;8.490;2022-07-21T06:45:13;24.00;1.00
14031;DHT22;7090;49.436;8.490;2022-07-21T06:47:39;24.40;1.00
14031;DHT22;7090;49.436;8.490;2022-07-21T06:50:06;23.90;99.90
14031;DHT22;7090;49.436;8.490;2022-07-21T06:52:33;23.80;99.90
14031;DHT22;7090;49.436;8.490;2022-07-21T06:54:59;23.60;99.90
14031;DHT22;7090;49.436;8.490;2022-07-21T06:57:25;23.80;99.90
14031;DHT22;7090;49.436;8.490;2022-07-21T06:59:51;23.90;99.90
14031;DHT22;7090;49.436;8.490;2022-07-21T07:02:16;23.60;99.90
14031;DHT22;7090;49.436;8.490;2022-07-21T07:04:42;23.30;99.90
14031;DHT22;7090;49.436;8.490;2022-07-21T07:07:11;23.50;1.00
14031;DHT22;7090;49.436;8.490;2022-07-21T07:09:37;23.90;1.00
14031;DHT22;7090;49.436;8.490;2022-07-21T07:12:03;24.30;99.90
14031;DHT22;7090;49.436;8.490;2022-07-21T07:14:30;23.80;99.90
14031;DHT22;7090;49.436;8.490;2022-07-21T07:16:57;23.60;1.00
14031;DHT22;7090;49.436;8.490;2022-07-21T07:19:23;23.80;1.00
14031;DHT22;7090;49.436;8.490;2022-07-21T07:21:48;23.40;1.00
14031;DHT22;7090;49.436;8.490;2022-07-21T07:24:14;23.10;1.00
14031;DHT22;7090;49.436;8.490;2022-07-21T07:26:40;23.10;1.00
14031;DHT22;7090;49.436;8.490;2022-07-21T07:29:06;23.10;1.00
14031;DHT22;7090;49.436;8.490;2022-07-21T07:31:31;23.00;1.00
14031;DHT22;7090;49.436;8.490;2022-07-21T07:33:57;22.90;1.00
14031;DHT22;7090;49.436;8.490;2022-07-21T07:36:24;22.70;1.00
14031;DHT22;7090;49.436;8.490;2022-07-21T07:38:53;23.10;1.00
14031;DHT22;7090;49.436;8.490;2022-07-21T07:41:20;23.30;1.00
14031;DHT22;7090;49.436;8.490;2022-07-21T07:43:46;23.10;1.00
14031;DHT22;7090;49.436;8.490;2022-07-21T07:46:12;23.00;1.00
14031;DHT22;7090;49.436;8.490;2022-07-21T07:48:39;23.10;1.00
14031;DHT22;7090;49.436;8.490;2022-07-21T07:51:06;23.40;1.00
14031;DHT22;7090;49.436;8.490;2022-07-21T07:53:33;23.60;1.00
14031;DHT22;7090;49.436;8.490;2022-07-21T07:55:58;23.70;1.00
14031;DHT22;7090;49.436;8.490;2022-07-21T07:58:24;23.60;99.90
14031;DHT22;7090;49.436;8.490;2022-07-21T08:00:50;23.50;99.90
14031;DHT22;7090;49.436;8.490;2022-07-21T08:03:16;23.60;99.90
14031;DHT22;7090;49.436;8.490;2022-07-21T08:05:42;24.30;99.90
14031;DHT22;7090;49.436;8.490;2022-07-21T08:08:07;24.80;1.00
14031;DHT22;7090;49.436;8.490;2022-07-21T08:10:33;25.00;1.00
14031;DHT22;7090;49.436;8.490;2022-07-21T08:12:59;24.70;1.00
14031;DHT22;7090;49.436;8.490;2022-07-21T08:15:25;24.70;1.00
14031;DHT22;7090;49.436;8.490;2022-07-21T08:17:50;24.90;1.00
14031;DHT22;7090;49.436;8.490;2022-07-21T08:20:16;24.50;1.00
14031;DHT22;7090;49.436;8.490;2022-07-21T08:22:41;24.40;64.10
14031;DHT22;7090;49.436;8.490;2022-07-21T08:25:07;24.60;69.70
14031;DHT22;7090;49.436;8.490;2022-07-21T08:27:33;24.60;1.00
14031;DHT22;7090;49.436;8.490;2022-07-21T08:29:59;24.50;1.00
14031;DHT22;7090;49.436;8.490;2022-07-21T08:32:24;24.70;19.20
14031;DHT22;7090;49.436;8.490;2022-07-21T08:34:50;24.80;1.00
14031;DHT22;7090;49.436;8.490;2022-07-21T08:37:19;24.20;99.90
14031;DHT22;7090;49.436;8.490;2022-07-21T08:39:45;24.10;99.90
14031;DHT22;7090;49.436;8.490;2022-07-21T08:42:11;24.20;99.90
14031;DHT22;7090;49.436;8.490;2022-07-21T08:44:37;24.40;99.90
14031;DHT22;7090;49.436;8.490;2022-07-21T08:47:04;25.50;1.00
14031;DHT22;7090;49.436;8.490;2022-07-21T08:49:31;26.40;1.00
14031;DHT22;7090;49.436;8.490;2022-07-21T08:51:57;25.80;1.00
14031;DHT22;7090;49.436;8.490;2022-07-21T08:54:23;25.70;1.00
14031;DHT22;7090;49.436;8.490;2022-07-21T08:56:49;26.00;99.90
14031;DHT22;7090;49.436;8.490;2022-07-21T08:59:15;25.50;99.90
14031;DHT22;7090;49.436;8.490;2022-07-21T09:01:41;24.60;1.00
14031;DHT22;7090;49.436;8.490;2022-07-21T09:04:27;24.90;1.00
14031;DHT22;7090;49.436;8.490;2022-07-21T09:09:21;25.30;1.00
14031;DHT22;7090;49.436;8.490;2022-07-21T09:11:48;25.40;1.00
14031;DHT22;7090;49.436;8.490;2022-07-21T09:14:16;25.00;1.00
14031;DHT22;7090;49.436;8.490;2022-07-21T09:16:46;24.50;1.00
14031;DHT22;7090;49.436;8.490;2022-07-21T09:19:24;24.70;99.90
14031;DHT22;7090;49.436;8.490;2022-07-21T09:21:52;24.70;1.00
14031;DHT22;7090;49.436;8.490;2022-07-21T09:29:26;24.80;1.00
14031;DHT22;7090;49.436;8.490;2022-07-21T09:31:51;25.30;1.00
14031;DHT22;7090;49.436;8.490;2022-07-21T09:34:17;25.60;99.90
14031;DHT22;7090;49.436;8.490;2022-07-21T09:36:57;25.60;99.90
14031;DHT22;7090;49.436;8.490;2022-07-21T09:42:28;25.80;99.90
14031;DHT22;7090;49.436;8.490;2022-07-21T09:45:01;25.80;99.90
14031;DHT22;7090;49.436;8.490;2022-07-21T09:47:29;25.30;99.90
14031;DHT22;7090;49.436;8.490;2022-07-21T09:49:56;25.00;99.90
14031;DHT22;7090;49.436;8.490;2022-07-21T09:52:25;25.70;27.80
14031;DHT22;7090;49.436;8.490;2022-07-21T09:54:53;25.60;1.00
14031;DHT22;7090;49.436;8.490;2022-07-21T09:57:20;26.20;1.00
14031;DHT22;7090;49.436;8.490;2022-07-21T09:59:47;26.90;1.00
14031;DHT22;7090;49.436;8.490;2022-07-21T10:02:21;27.30;99.90
14031;DHT22;7090;49.436;8.490;2022-07-21T10:04:56;27.60;99.90
14031;DHT22;7090;49.436;8.490;2022-07-21T10:07:23;28.30;99.90
14031;DHT22;7090;49.436;8.490;2022-07-21T10:09:49;27.30;99.90
14031;DHT22;7090;49.436;8.490;2022-07-21T10:12:16;26.90;99.90
14031;DHT22;7090;49.436;8.490;2022-07-21T10:14:43;26.90;99.90
14031;DHT22;7090;49.436;8.490;2022-07-21T10:17:09;26.70;99.90
14031;DHT22;7090;49.436;8.490;2022-07-21T10:22:48;26.80;99.90
14031;DHT22;7090;49.436;8.490;2022-07-21T10:25:21;26.60;99.90
14031;DHT22;7090;49.436;8.490;2022-07-21T10:28:22;26.60;99.90
14031;DHT22;7090;49.436;8.490;2022-07-21T10:30:54;26.80;99.90
14031;DHT22;7090;49.436;8.490;2022-07-21T10:33:50;26.70;1.00
14031;DHT22;7090;49.436;8.490;2022-07-21T10:36:07;26.80;1.00
14031;DHT22;7090;49.436;8.490;2022-07-21T10:38:34;26.90;99.90
14031;DHT22;7090;49.436;8.490;2022-07-21T10:41:03;27.40;1.00
14031;DHT22;7090;49.436;8.490;2022-07-21T10:45:56;27.80;1.00
14031;DHT22;7090;49.436;8.490;2022-07-21T10:51:12;28.40;1.00
14031;DHT22;7090;49.436;8.490;2022-07-21T10:53:39;27.80;99.90
14031;DHT22;7090;49.436;8.490;2022-07-21T10:56:07;28.40;1.00
14031;DHT22;7090;49.436;8.490;2022-07-21T10:58:33;29.40;1.00
14031;DHT22;7090;49.436;8.490;2022-07-21T11:01:25;29.70;1.00
14031;DHT22;7090;49.436;8.490;2022-07-21T11:04:08;29.40;1.00
14031;DHT22;7090;49.436;8.490;2022-07-21T11:06:36;29.90;99.90
14031;DHT22;7090;49.436;8.490;2022-07-21T11:11:56;29.50;1.00
14031;DHT22;7090;49.436;8.490;2022-07-21T11:17:01;28.60;99.90
14031;DHT22;7090;49.436;8.490;2022-07-21T11:24:38;28.60;1.00
14031;DHT22;7090;49.436;8.490;2022-07-21T11:29:32;28.30;1.00
14031;DHT22;7090;49.436;8.490;2022-07-21T11:31:58;28.80;99.90
14031;DHT22;7090;49.436;8.490;2022-07-21T11:37:09;29.50;1.00
14031;DHT22;7090;49.436;8.490;2022-07-21T11:39:35;28.50;99.90
14031;DHT22;7090;49.436;8.490;2022-07-21T11:42:05;28.40;21.80
14031;DHT22;7090;49.436;8.490;2022-07-21T11:44:32;29.10;99.90
14031;DHT22;7090;49.436;8.490;2022-07-21T11:47:00;29.30;1.00
14031;DHT22;7090;49.436;8.490;2022-07-21T11:49:26;29.00;99.90
14031;DHT22;7090;49.436;8.490;2022-07-21T11:52:04;29.10;1.00
14031;DHT22;7090;49.436;8.490;2022-07-21T11:54:44;29.00;1.00
14031;DHT22;7090;49.436;8.490;2022-07-21T11:57:12;28.20;39.70
14031;DHT22;7090;49.436;8.490;2022-07-21T11:59:38;28.60;99.90
14031;DHT22;7090;49.436;8.490;2022-07-21T12:02:13;28.60;1.00
14031;DHT22;7090;49.436;8.490;2022-07-21T12:04:47;29.00;99.90
14031;DHT22;7090;49.436;8.490;2022-07-21T12:07:24;29.60;1.00
14031;DHT22;7090;49.436;8.490;2022-07-21T12:10:02;29.60;1.00
14031;DHT22;7090;49.436;8.490;2022-07-21T12:12:40;29.40;1.00
14031;DHT22;7090;49.436;8.490;2022-07-21T12:15:16;30.00;1.00
14031;DHT22;7090;49.436;8.490;2022-07-21T12:17:50;30.00;1.00
14031;DHT22;7090;49.436;8.490;2022-07-21T12:22:54;29.30;99.90
14031;DHT22;7090;49.436;8.490;2022-07-21T12:25:34;29.10;1.00
14031;DHT22;7090;49.436;8.490;2022-07-21T12:28:00;29.50;1.00
14031;DHT22;7090;49.436;8.490;2022-07-21T12:35:39;29.00;1.00
14031;DHT22;7090;49.436;8.490;2022-07-21T12:38:11;29.00;99.90
14031;DHT22;7090;49.436;8.490;2022-07-21T12:40:46;29.60;99.90
14031;DHT22;7090;49.436;8.490;2022-07-21T12:43:17;29.20;99.90
14031;DHT22;7090;49.436;8.490;2022-07-21T12:48:20;30.10;1.00
14031;DHT22;7090;49.436;8.490;2022-07-21T12:51:12;29.80;1.00
14031;DHT22;7090;49.436;8.490;2022-07-21T12:53:50;28.60;1.00
14031;DHT22;7090;49.436;8.490;2022-07-21T12:56:30;28.30;99.90
14031;DHT22;7090;49.436;8.490;2022-07-21T12:58:57;28.10;99.90
14031;DHT22;7090;49.436;8.490;2022-07-21T13:01:25;27.90;1.00
14031;DHT22;7090;49.436;8.490;2022-07-21T13:03:51;27.60;1.00
14031;DHT22;7090;49.436;8.490;2022-07-21T13:06:17;27.60;1.00
14031;DHT22;7090;49.436;8.490;2022-07-21T13:08:44;28.30;1.00
14031;DHT22;7090;49.436;8.490;2022-07-21T13:11:15;28.80;99.90
14031;DHT22;7090;49.436;8.490;2022-07-21T13:13:41;28.80;57.10
14031;DHT22;7090;49.436;8.490;2022-07-21T13:16:08;28.80;1.00
14031;DHT22;7090;49.436;8.490;2022-07-21T13:18:34;28.40;1.00
14031;DHT22;7090;49.436;8.490;2022-07-21T13:20:59;28.30;1.00
14031;DHT22;7090;49.436;8.490;2022-07-21T13:23:26;27.90;99.90
14031;DHT22;7090;49.436;8.490;2022-07-21T13:25:52;28.10;99.90
14031;DHT22;7090;49.436;8.490;2022-07-21T13:28:18;28.40;99.90
14031;DHT22;7090;49.436;8.490;2022-07-21T13:30:44;28.90;44.70
14031;DHT22;7090;49.436;8.490;2022-07-21T13:33:10;29.60;1.00
14031;DHT22;7090;49.436;8.490;2022-07-21T13:35:36;30.30;99.90
14031;DHT22;7090;49.436;8.490;2022-07-21T13:38:02;30.00;99.90
14031;DHT22;7090;49.436;8.490;2022-07-21T13:40:28;29.70;1.00
14031;DHT22;7090;49.436;8.490;2022-07-21T13:42:54;30.20;1.00
14031;DHT22;7090;49.436;8.490;2022-07-21T13:45:20;30.10;1.00
14031;DHT22;7090;49.436;8.490;2022-07-21T13:47:46;30.20;1.00
14031;DHT22;7090;49.436;8.490;2022-07-21T13:50:12;30.20;1.00
14031;DHT22;7090;49.436;8.490;2022-07-21T13:52:37;29.70;99.90
14031;DHT22;7090;49.436;8.490;2022-07-21T13:55:06;29.30;99.90
14031;DHT22;7090;49.436;8.490;2022-07-21T13:57:32;28.50;99.90
14031;DHT22;7090;49.436;8.490;2022-07-21T13:59:58;28.50;99.90
14031;DHT22;7090;49.436;8.490;2022-07-21T14:02:24;28.20;1.00
14031;DHT22;7090;49.436;8.490;2022-07-21T14:04:49;28.90;1.00
14031;DHT22;7090;49.436;8.490;2022-07-21T14:07:15;29.50;1.00
14031;DHT22;7090;49.436;8.490;2022-07-21T14:09:41;29.00;1.00
14031;DHT22;7090;49.436;8.490;2022-07-21T14:12:07;29.30;1.00
14031;DHT22;7090;49.436;8.490;2022-07-21T14:14:33;30.00;1.00
14031;DHT22;7090;49.436;8.490;2022-07-21T14:16:59;29.30;1.00
14031;DHT22;7090;49.436;8.490;2022-07-21T14:19:24;28.90;1.00
14031;DHT22;7090;49.436;8.490;2022-07-21T14:21:50;29.20;1.00
14031;DHT22;7090;49.436;8.490;2022-07-21T14:24:16;28.90;1.00
14031;DHT22;7090;49.436;8.490;2022-07-21T14:27:00;29.70;1.00
14031;DHT22;7090;49.436;8.490;2022-07-21T14:29:26;30.80;99.90
14031;DHT22;7090;49.436;8.490;2022-07-21T14:31:51;31.50;99.90
14031;DHT22;7090;49.436;8.490;2022-07-21T14:34:17;30.60;99.90
14031;DHT22;7090;49.436;8.490;2022-07-21T14:36:43;30.70;1.00
14031;DHT22;7090;49.436;8.490;2022-07-21T14:39:09;29.80;1.00
14031;DHT22;7090;49.436;8.490;2022-07-21T14:41:34;30.20;1.00
14031;DHT22;7090;49.436;8.490;2022-07-21T14:44:00;29.30;1.00
14031;DHT22;7090;49.436;8.490;2022-07-21T14:46:26;28.40;1.00
14031;DHT22;7090;49.436;8.490;2022-07-21T14:48:51;27.90;1.00
14031;DHT22;7090;49.436;8.490;2022-07-21T14:51:17;27.80;99.90
14031;DHT22;7090;49.436;8.490;2022-07-21T14:53:42;27.80;99.90
14031;DHT22;7090;49.436;8.490;2022-07-21T14:56:09;27.80;99.90
14031;DHT22;7090;49.436;8.490;2022-07-21T14:58:35;27.90;99.90
14031;DHT22;7090;49.436;8.490;2022-07-21T15:01:01;27.90;21.90
14031;DHT22;7090;49.436;8.490;2022-07-21T15:03:27;28.00;1.00
14031;DHT22;7090;49.436;8.490;2022-07-21T15:05:53;28.30;1.00
14031;DHT22;7090;49.436;8.490;2022-07-21T15:08:18;28.80;1.00
14031;DHT22;7090;49.436;8.490;2022-07-21T15:10:44;29.00;1.00
14031;DHT22;7090;49.436;8.490;2022-07-21T15:13:12;29.50;1.00
14031;DHT22;7090;49.436;8.490;2022-07-21T15:15:38;30.40;99.90
14031;DHT22;7090;49.436;8.490;2022-07-21T15:18:04;30.90;99.90
14031;DHT22;7090;49.436;8.490;2022-07-21T15:20:29;30.70;1.00
14031;DHT22;7090;49.436;8.490;2022-07-21T15:22:55;31.00;1.00
14031;DHT22;7090;49.436;8.490;2022-07-21T15:25:21;30.50;1.00
14031;DHT22;7090;49.436;8.490;2022-07-21T15:27:47;30.70;1.00
14031;DHT22;7090;49.436;8.490;2022-07-21T15:30:14;30.00;1.00
14031;DHT22;7090;49.436;8.490;2022-07-21T15:32:40;29.80;99.90
14031;DHT22;7090;49.436;8.490;2022-07-21T15:35:07;29.00;1.00
14031;DHT22;7090;49.436;8.490;2022-07-21T15:37:33;28.60;1.00
14031;DHT22;7090;49.436;8.490;2022-07-21T15:39:58;28.70;1.00
14031;DHT22;7090;49.436;8.490;2022-07-21T15:42:24;29.20;1.00
14031;DHT22;7090;49.436;8.490;2022-07-21T15:44:51;29.70;1.00
14031;DHT22;7090;49.436;8.490;2022-07-21T15:47:16;29.50;1.00
14031;DHT22;7090;49.436;8.490;2022-07-21T15:49:42;29.70;1.00
14031;DHT22;7090;49.436;8.490;2022-07-21T15:52:08;29.80;1.00
14031;DHT22;7090;49.436;8.490;2022-07-21T15:54:33;30.00;1.00
14031;DHT22;7090;49.436;8.490;2022-07-21T15:56:59;30.40;1.00
14031;DHT22;7090;49.436;8.490;2022-07-21T15:59:25;30.50;99.90
14031;DHT22;7090;49.436;8.490;2022-07-21T16:02:01;30.10;1.00
14031;DHT22;7090;49.436;8.490;2022-07-21T16:04:27;30.10;99.90
14031;DHT22;7090;49.436;8.490;2022-07-21T16:06:52;30.10;99.90
14031;DHT22;7090;49.436;8.490;2022-07-21T16:09:18;29.50;1.00
14031;DHT22;7090;49.436;8.490;2022-07-21T16:11:44;29.10;99.90
14031;DHT22;7090;49.436;8.490;2022-07-21T16:14:10;28.60;99.90
14031;DHT22;7090;49.436;8.490;2022-07-21T16:16:35;28.70;99.90
14031;DHT22;7090;49.436;8.490;2022-07-21T16:19:02;28.80;99.90
14031;DHT22;7090;49.436;8.490;2022-07-21T16:21:29;28.90;1.00
14031;DHT22;7090;49.436;8.490;2022-07-21T16:23:54;28.60;1.00
14031;DHT22;7090;49.436;8.490;2022-07-21T16:26:20;28.40;1.00
14031;DHT22;7090;49.436;8.490;2022-07-21T16:28:46;28.00;1.00
14031;DHT22;7090;49.436;8.490;2022-07-21T16:31:12;28.10;1.00
14031;DHT22;7090;49.436;8.490;2022-07-21T16:33:37;28.00;1.00
14031;DHT22;7090;49.436;8.490;2022-07-21T16:36:03;27.80;1.00